createdAt,value
2022-08-05T00:02:23.276Z,1.92
2022-08-05T00:04:52.901Z,1.60
2022-08-05T00:07:59.058Z,1.17
2022-08-05T00:10:13.375Z,3.80
2022-08-05T00:12:56.440Z,3.55
2022-08-05T00:15:57.631Z,2.83
2022-08-05T00:18:21.596Z,1.55
2022-08-05T00:20:50.769Z,2.67
2022-08-05T00:23:44.557Z,3.33
2022-08-05T00:26:09.002Z,3.97
2022-08-05T00:28:38.909Z,2.58
2022-08-05T00:31:08.442Z,6.05
2022-08-05T00:34:54.739Z,2.20
2022-08-05T00:37:10.805Z,3.05
2022-08-05T00:39:16.467Z,2.50
2022-08-05T00:41:55.126Z,3.10
2022-08-05T00:44:30.826Z,3.22
2022-08-05T00:47:03.670Z,1.83
2022-08-05T00:49:44.634Z,5.95
2022-08-05T00:52:28.682Z,4.53
2022-08-05T00:54:58.405Z,4.43
2022-08-05T00:57:38.445Z,2.10
2022-08-05T01:00:15.097Z,2.28
2022-08-05T01:02:45.071Z,2.63
2022-08-05T01:05:13.563Z,1.73
2022-08-05T01:08:40.291Z,1.60
2022-08-05T01:10:36.570Z,1.85
2022-08-05T01:13:13.396Z,6.03
2022-08-05T01:15:57.386Z,2.75
2022-08-05T01:18:32.659Z,1.73
2022-08-05T01:21:12.281Z,2.83
2022-08-05T01:24:13.093Z,2.17
2022-08-05T01:27:00.801Z,2.63
2022-08-05T01:29:51.720Z,3.08
2022-08-05T01:32:24.383Z,1.20
2022-08-05T01:35:00.372Z,1.85
2022-08-05T01:37:36.519Z,1.98
2022-08-05T01:40:07.639Z,4.03
2022-08-05T01:42:39.087Z,1.83
2022-08-05T01:45:11.750Z,2.38
2022-08-05T01:47:47.759Z,3.47
2022-08-05T01:50:28.659Z,2.85
2022-08-05T01:53:01.460Z,3.05
2022-08-05T01:55:36.197Z,1.55
2022-08-05T01:58:10.980Z,1.65
2022-08-05T02:00:51.231Z,1.63
2022-08-05T02:03:31.837Z,3.80
2022-08-05T02:06:12.682Z,1.38
2022-08-05T02:08:58.393Z,2.67
2022-08-05T02:11:34.097Z,1.67
2022-08-05T02:14:06.361Z,3.17
2022-08-05T02:16:40.798Z,2.28
2022-08-05T02:19:19.005Z,1.70
2022-08-05T02:21:52.267Z,1.63
2022-08-05T02:24:23.710Z,2.25
2022-08-05T02:26:55.464Z,2.65
2022-08-05T02:29:59.522Z,1.45
2022-08-05T02:32:24.242Z,1.15
2022-08-05T02:35:02.141Z,1.58
2022-08-05T02:37:47.822Z,2.67
2022-08-05T02:40:24.099Z,1.55
2022-08-05T02:42:54.271Z,2.13
2022-08-05T02:45:24.403Z,1.10
2022-08-05T02:48:06.730Z,2.08
2022-08-05T02:50:43.658Z,1.63
2022-08-05T02:53:18.984Z,1.52
2022-08-05T02:55:54.651Z,1.85
2022-08-05T02:58:26.567Z,1.05
2022-08-05T03:00:57.095Z,1.58
2022-08-05T03:03:33.759Z,10.77
2022-08-05T03:06:56.096Z,1.35
2022-08-05T03:08:53.110Z,1.00
2022-08-05T03:11:56.372Z,2.03
2022-08-05T03:14:13.611Z,1.40
2022-08-05T03:16:41.935Z,1.70
2022-08-05T03:19:12.904Z,1.33
2022-08-05T03:21:49.396Z,1.83
2022-08-05T03:24:23.626Z,1.00
2022-08-05T03:27:00.103Z,0.93
2022-08-05T03:29:45.894Z,1.45
2022-08-05T03:32:16.943Z,1.40
2022-08-05T03:34:50.741Z,1.88
2022-08-05T03:37:20.462Z,1.10
2022-08-05T03:39:58.927Z,1.02
2022-08-05T03:42:28.918Z,1.65
2022-08-05T03:44:57.361Z,1.55
2022-08-05T03:47:25.662Z,1.00
2022-08-05T03:50:00.242Z,1.10
2022-08-05T03:52:37.213Z,1.40
2022-08-05T03:56:05.809Z,1.00
2022-08-05T03:58:18.808Z,1.75
2022-08-05T04:00:51.703Z,0.88
2022-08-05T04:03:28.620Z,1.48
2022-08-05T04:05:59.781Z,1.80
2022-08-05T04:08:36.812Z,1.05
2022-08-05T04:11:07.446Z,1.77
2022-08-05T04:13:51.188Z,1.20
2022-08-05T04:16:25.012Z,2.10
2022-08-05T04:19:00.340Z,1.70
2022-08-05T04:22:10.285Z,0.70
2022-08-05T04:24:19.555Z,1.30
2022-08-05T04:26:50.838Z,1.10
2022-08-05T04:29:19.974Z,0.80
2022-08-05T04:31:48.348Z,0.73
2022-08-05T04:34:32.839Z,1.10
2022-08-05T04:37:03.749Z,1.15
2022-08-05T04:39:33.493Z,0.75
2022-08-05T04:42:03.857Z,1.30
2022-08-05T04:44:32.330Z,0.95
2022-08-05T04:47:08.733Z,0.85
2022-08-05T04:50:01.701Z,1.02
2022-08-05T04:52:28.197Z,1.17
2022-08-05T04:54:57.307Z,1.02
2022-08-05T04:57:28.526Z,1.08
2022-08-05T04:59:58.949Z,1.05
2022-08-05T05:02:37.169Z,1.00
2022-08-05T05:05:16.692Z,1.05
2022-08-05T05:08:01.930Z,1.85
2022-08-05T05:10:30.738Z,1.73
2022-08-05T05:13:01.696Z,1.65
2022-08-05T05:15:56.370Z,0.80
2022-08-05T05:18:28.631Z,0.75
2022-08-05T05:21:02.012Z,0.82
2022-08-05T05:24:02.475Z,1.60
2022-08-05T05:26:28.699Z,0.80
2022-08-05T05:29:02.269Z,0.77
2022-08-05T05:34:02.407Z,0.77
2022-08-05T05:36:31.544Z,1.10
2022-08-05T05:39:03.825Z,0.63
2022-08-05T05:41:40.849Z,0.90
2022-08-05T05:44:36.898Z,1.42
2022-08-05T05:46:58.218Z,1.15
2022-08-05T05:49:26.476Z,0.73
2022-08-05T05:51:54.765Z,1.83
2022-08-05T05:54:49.968Z,0.68
2022-08-05T05:57:13.908Z,1.00
2022-08-05T05:59:47.623Z,1.27
2022-08-05T06:02:17.087Z,0.68
2022-08-05T06:05:01.357Z,1.00
2022-08-05T06:07:41.780Z,0.63
2022-08-05T06:10:12.833Z,1.40
2022-08-05T06:12:42.332Z,1.05
2022-08-05T06:15:16.192Z,0.90
2022-08-05T06:17:53.189Z,0.70
2022-08-05T06:20:22.990Z,1.60
2022-08-05T06:22:50.985Z,0.98
2022-08-05T06:25:25.136Z,1.77
2022-08-05T06:28:10.685Z,0.70
2022-08-05T06:30:39.614Z,1.13
2022-08-05T06:33:10.801Z,1.70
2022-08-05T06:36:04.053Z,1.77
2022-08-05T06:38:36.831Z,1.15
2022-08-05T06:41:07.880Z,0.88
2022-08-05T06:43:58.092Z,1.08
2022-08-05T06:46:30.246Z,2.10
2022-08-05T06:48:59.706Z,1.17
2022-08-05T06:51:30.739Z,4.07
2022-08-05T06:53:59.873Z,0.93
2022-08-05T06:56:30.011Z,2.65
2022-08-05T06:59:01.363Z,4.50
2022-08-05T07:01:32.601Z,1.77
2022-08-05T07:04:01.300Z,11.45
2022-08-05T07:06:30.455Z,0.88
2022-08-05T07:09:00.190Z,33.28
2022-08-05T07:11:36.816Z,2.30
2022-08-05T07:14:29.584Z,9.52
2022-08-05T07:18:00.162Z,3.10
2022-08-05T07:22:37.129Z,13.13
2022-08-05T07:25:22.752Z,0.68
2022-08-05T07:27:57.542Z,5.80
2022-08-05T07:30:33.336Z,1.67
2022-08-05T07:33:05.433Z,1.52
2022-08-05T07:36:03.258Z,4.72
2022-08-05T07:38:34.439Z,4.65
2022-08-05T07:42:06.831Z,4.72
2022-08-05T07:43:56.902Z,5.28
2022-08-05T07:46:26.824Z,5.07
2022-08-05T07:49:03.978Z,3.47
2022-08-05T07:51:48.787Z,6.93
2022-08-05T07:54:31.112Z,6.72
2022-08-05T07:57:18.022Z,6.88
2022-08-05T07:59:51.742Z,2.95
2022-08-05T08:02:26.495Z,10.00
2022-08-05T08:05:00.518Z,5.55
2022-08-05T08:07:39.310Z,6.82
2022-08-05T08:10:08.293Z,6.45
2022-08-05T08:12:49.358Z,4.47
2022-08-05T08:16:33.242Z,4.65
2022-08-05T08:18:13.915Z,5.93
2022-08-05T08:21:00.312Z,2.53
2022-08-05T08:24:02.127Z,3.78
2022-08-05T08:26:29.546Z,8.88
2022-08-05T08:29:02.135Z,5.07
2022-08-05T08:31:48.321Z,5.68
2022-08-05T08:34:16.710Z,3.30
2022-08-05T08:36:54.677Z,5.93
2022-08-05T08:39:24.823Z,3.80
2022-08-05T08:41:59.628Z,2.20
2022-08-05T08:48:06.178Z,3.08
2022-08-05T08:50:33.107Z,1.30
2022-08-05T08:53:08.122Z,3.05
2022-08-05T08:56:03.384Z,2.35
2022-08-05T08:58:43.019Z,2.17
2022-08-05T09:01:17.092Z,3.50
2022-08-05T09:03:54.622Z,4.25
2022-08-05T09:06:27.996Z,2.33
2022-08-05T09:08:59.344Z,2.08
2022-08-05T09:11:53.076Z,3.67
2022-08-05T09:14:56.769Z,1.65
2022-08-05T09:17:09.369Z,2.20
2022-08-05T09:20:01.964Z,2.80
2022-08-05T09:22:31.759Z,3.35
2022-08-05T09:25:01.020Z,11.32
2022-08-05T09:28:04.857Z,1.30
2022-08-05T09:30:23.414Z,3.75
2022-08-05T09:32:52.996Z,4.10
2022-08-05T09:35:27.151Z,3.65
2022-08-05T09:38:17.119Z,4.27
2022-08-05T09:40:52.626Z,3.92
2022-08-05T09:43:41.255Z,4.88
2022-08-05T09:46:27.570Z,1.90
2022-08-05T09:49:08.301Z,1.30
2022-08-05T09:51:48.993Z,4.47
2022-08-05T09:54:28.846Z,3.25
2022-08-05T09:57:01.298Z,4.45
2022-08-05T09:59:29.473Z,3.28
2022-08-05T10:02:03.449Z,4.60
2022-08-05T10:04:38.250Z,3.88
2022-08-05T10:07:20.498Z,3.55
2022-08-05T10:10:14.613Z,5.03
2022-08-05T10:12:49.962Z,1.48
2022-08-05T10:18:06.339Z,3.60
2022-08-05T10:20:36.594Z,4.75
2022-08-05T10:23:08.829Z,3.08
2022-08-05T10:25:50.449Z,6.13
2022-08-05T10:28:29.146Z,5.13
2022-08-05T10:32:53.354Z,4.93
2022-08-05T10:33:54.032Z,4.35
2022-08-05T10:36:25.845Z,5.28
2022-08-05T10:39:10.141Z,4.45
2022-08-05T10:44:18.390Z,5.75
2022-08-05T10:46:51.158Z,3.95
2022-08-05T10:49:26.756Z,8.48
2022-08-05T10:52:03.285Z,5.40
2022-08-05T10:54:56.378Z,7.43
2022-08-05T10:57:30.896Z,8.52
2022-08-05T11:00:18.543Z,4.38
2022-08-05T11:03:25.674Z,10.90
2022-08-05T11:06:15.150Z,9.07
2022-08-05T11:09:39.310Z,6.53
2022-08-05T11:12:50.409Z,5.05
2022-08-05T11:15:59.023Z,6.78
2022-08-05T11:18:29.653Z,5.28
2022-08-05T11:20:59.026Z,8.15
2022-08-05T11:24:03.997Z,8.35
2022-08-05T11:26:28.710Z,7.15
2022-08-05T11:29:12.359Z,7.00
2022-08-05T11:31:54.040Z,5.45
2022-08-05T11:34:38.309Z,5.72
2022-08-05T11:38:29.106Z,7.70
2022-08-05T11:40:00.255Z,16.33
2022-08-05T11:42:31.216Z,6.93
2022-08-05T11:45:23.542Z,4.05
2022-08-05T11:47:54.573Z,6.30
2022-08-05T11:50:23.441Z,8.95
2022-08-05T11:52:57.679Z,8.98
2022-08-05T11:55:32.008Z,4.43
2022-08-05T11:58:09.266Z,5.03
2022-08-05T12:00:44.309Z,7.20
2022-08-05T12:03:29.264Z,3.25
2022-08-05T12:06:06.495Z,9.63
2022-08-05T12:08:48.027Z,5.80
2022-08-05T12:11:21.018Z,4.10
2022-08-05T12:14:04.167Z,3.20
2022-08-05T12:16:38.498Z,5.53
2022-08-05T12:19:08.228Z,7.25
2022-08-05T12:21:39.091Z,4.38
2022-08-05T12:24:09.555Z,4.72
2022-08-05T12:26:39.488Z,3.85
2022-08-05T12:29:15.869Z,3.20
2022-08-05T12:31:53.388Z,1.90
2022-08-05T12:34:25.783Z,3.25
2022-08-05T12:36:55.461Z,6.95
2022-08-05T12:39:34.657Z,7.47
2022-08-05T12:42:10.143Z,4.25
2022-08-05T12:44:44.386Z,2.08
2022-08-05T12:47:17.196Z,4.95
2022-08-05T12:50:02.459Z,2.10
2022-08-05T12:52:39.679Z,3.92
2022-08-05T12:55:23.778Z,1.42
2022-08-05T12:58:52.625Z,5.22
2022-08-05T13:02:00.940Z,3.80
2022-08-05T13:03:41.343Z,1.45
2022-08-05T13:06:16.098Z,1.83
2022-08-05T13:08:50.770Z,1.83
2022-08-05T13:12:01.781Z,5.28
2022-08-05T13:14:19.711Z,2.50
2022-08-05T13:16:54.793Z,12.32
2022-08-05T13:19:27.467Z,5.15
2022-08-05T13:22:29.366Z,7.38
2022-08-05T13:25:00.575Z,3.42
2022-08-05T13:27:37.478Z,5.25
2022-08-05T13:30:33.896Z,3.33
2022-08-05T13:32:57.532Z,5.47
2022-08-05T13:35:47.266Z,4.05
2022-08-05T13:38:30.296Z,7.20
2022-08-05T13:41:04.708Z,3.72
2022-08-05T13:43:44.366Z,4.28
2022-08-05T13:46:14.907Z,2.67
2022-08-05T13:48:58.457Z,3.65
2022-08-05T13:51:40.102Z,4.78
2022-08-05T13:54:12.786Z,10.48
2022-08-05T13:56:45.048Z,4.43
2022-08-05T13:59:21.338Z,5.88
2022-08-05T14:01:57.804Z,4.00
2022-08-05T14:04:49.818Z,4.10
2022-08-05T14:07:55.607Z,4.70
2022-08-05T14:10:12.081Z,2.50
2022-08-05T14:12:42.952Z,2.40
2022-08-05T14:16:09.217Z,6.28
2022-08-05T14:18:05.430Z,2.75
2022-08-05T14:20:33.371Z,2.53
2022-08-05T14:23:02.747Z,4.25
2022-08-05T14:25:30.759Z,5.00
2022-08-05T14:27:59.144Z,3.13
2022-08-05T14:30:28.076Z,4.45
2022-08-05T14:32:57.245Z,1.90
2022-08-05T14:35:36.893Z,8.73
2022-08-05T14:38:07.030Z,4.32
2022-08-05T14:40:55.245Z,6.13
2022-08-05T14:43:59.695Z,4.60
2022-08-05T14:46:12.722Z,5.70
2022-08-05T14:48:40.810Z,3.95
2022-08-05T14:51:09.510Z,16.80
2022-08-05T14:53:45.481Z,10.45
2022-08-05T14:56:33.844Z,7.63
2022-08-05T14:59:02.430Z,12.43
2022-08-05T15:01:47.270Z,7.90
2022-08-05T15:04:17.690Z,11.95
2022-08-05T15:06:49.746Z,15.68
2022-08-05T15:09:51.943Z,9.25
2022-08-05T15:12:09.527Z,6.25
2022-08-05T15:14:50.461Z,13.40
2022-08-05T15:17:45.833Z,10.63
2022-08-05T15:20:17.061Z,11.95
2022-08-05T15:22:52.085Z,13.77
2022-08-05T15:25:41.151Z,9.75
2022-08-05T15:28:15.711Z,8.52
2022-08-05T15:30:45.841Z,11.70
2022-08-05T15:33:56.429Z,9.80
2022-08-05T15:36:03.923Z,13.23
2022-08-05T15:38:35.308Z,10.90
2022-08-05T15:41:22.917Z,8.18
2022-08-05T15:43:55.036Z,9.27
2022-08-05T15:46:24.470Z,11.40
2022-08-05T15:48:58.547Z,12.65
2022-08-05T15:52:09.996Z,12.40
2022-08-05T15:54:18.502Z,12.88
2022-08-05T15:56:47.886Z,9.77
2022-08-05T15:59:20.060Z,11.10
2022-08-05T16:01:53.023Z,11.65
2022-08-05T16:04:25.681Z,12.05
2022-08-05T16:06:55.810Z,19.20
2022-08-05T16:09:24.780Z,14.45
2022-08-05T16:11:54.973Z,15.63
2022-08-05T16:14:24.815Z,11.25
2022-08-05T16:16:53.767Z,9.18
2022-08-05T16:20:03.791Z,11.20
2022-08-05T16:22:10.716Z,12.82
2022-08-05T16:24:51.980Z,12.95
2022-08-05T16:27:46.832Z,12.77
2022-08-05T16:30:23.378Z,10.50
2022-08-05T16:32:55.241Z,12.15
2022-08-05T16:35:27.646Z,14.90
2022-08-05T16:38:15.022Z,14.07
2022-08-05T16:40:52.068Z,19.52
2022-08-05T16:43:25.947Z,21.63
2022-08-05T16:46:05.057Z,28.40
2022-08-05T16:48:37.526Z,22.25
2022-08-05T16:51:09.983Z,22.70
2022-08-05T16:54:06.105Z,25.95
2022-08-05T16:56:29.170Z,27.92
2022-08-05T16:59:00.912Z,28.45
2022-08-05T17:01:54.184Z,34.72
2022-08-05T17:04:20.919Z,35.97
2022-08-05T17:06:53.287Z,38.15
2022-08-05T17:09:23.210Z,38.97
2022-08-05T17:11:55.969Z,38.95
2022-08-05T17:14:34.387Z,44.72
2022-08-05T17:17:06.642Z,44.35
2022-08-05T17:19:45.434Z,41.25
2022-08-05T17:22:24.832Z,50.28
2022-08-05T17:24:57.893Z,51.75
2022-08-05T17:27:27.310Z,55.22
2022-08-05T17:30:12.265Z,51.38
2022-08-05T17:32:46.921Z,57.10
2022-08-05T17:35:20.852Z,57.15
2022-08-05T17:37:49.512Z,70.90
2022-08-05T17:40:22.497Z,62.17
2022-08-05T17:42:53.503Z,57.83
2022-08-05T17:45:29.733Z,61.80
2022-08-05T17:48:07.861Z,57.40
2022-08-05T17:50:35.970Z,61.65
2022-08-05T17:53:05.171Z,61.15
2022-08-05T17:55:38.044Z,64.60
2022-08-05T17:58:13.031Z,67.90
2022-08-05T18:00:45.354Z,68.63
2022-08-05T18:06:11.089Z,70.07
2022-08-05T18:08:44.658Z,68.75
2022-08-05T18:11:24.723Z,68.55
2022-08-05T18:14:03.248Z,65.38
2022-08-05T18:16:33.758Z,70.20
2022-08-05T18:19:01.943Z,67.28
2022-08-05T18:22:07.692Z,68.15
2022-08-05T18:24:18.001Z,65.78
2022-08-05T18:26:45.974Z,65.95
2022-08-05T18:29:16.702Z,58.30
2022-08-05T18:31:46.340Z,58.58
2022-08-05T18:34:17.743Z,50.55
2022-08-05T18:36:49.780Z,50.28
2022-08-05T18:39:42.121Z,49.45
2022-08-05T18:42:10.838Z,43.53
2022-08-05T18:44:51.450Z,44.35
2022-08-05T18:47:26.484Z,41.97
2022-08-05T18:50:13.101Z,37.80
2022-08-05T18:52:51.049Z,43.30
2022-08-05T18:55:22.405Z,36.88
2022-08-05T18:57:54.068Z,36.95
2022-08-05T19:00:31.203Z,38.78
2022-08-05T19:03:04.753Z,34.58
2022-08-05T19:06:12.136Z,32.33
2022-08-05T19:08:30.906Z,41.45
2022-08-05T19:11:04.450Z,37.97
2022-08-05T19:13:36.037Z,39.13
2022-08-05T19:16:25.466Z,36.45
2022-08-05T19:18:56.708Z,40.00
2022-08-05T19:21:26.020Z,41.25
2022-08-05T19:24:07.125Z,43.53
2022-08-05T19:26:54.372Z,41.55
2022-08-05T19:29:24.265Z,47.38
2022-08-05T19:31:55.629Z,41.90
2022-08-05T19:34:27.680Z,46.38
2022-08-05T19:36:58.327Z,42.10
2022-08-05T19:39:28.278Z,46.17
2022-08-05T19:42:06.314Z,41.95
2022-08-05T19:44:44.575Z,48.90
2022-08-05T19:47:16.111Z,48.97
2022-08-05T19:49:47.975Z,45.78
2022-08-05T19:52:30.728Z,58.20
2022-08-05T19:55:00.499Z,19.33
2022-08-05T19:57:47.629Z,27.45
2022-08-05T20:00:22.786Z,22.13
2022-08-05T20:02:50.825Z,27.05
2022-08-05T20:05:24.357Z,14.82
2022-08-05T20:07:57.665Z,14.93
2022-08-05T20:10:27.388Z,16.90
2022-08-05T20:12:57.007Z,19.88
2022-08-05T20:15:51.904Z,16.80
2022-08-05T20:18:33.663Z,19.08
2022-08-05T20:21:04.811Z,20.80
2022-08-05T20:23:40.055Z,23.25
2022-08-05T20:26:20.322Z,24.70
2022-08-05T20:28:50.808Z,24.08
2022-08-05T20:31:22.953Z,25.40
2022-08-05T20:33:57.065Z,22.75
2022-08-05T20:36:26.699Z,28.77
2022-08-05T20:38:57.709Z,30.98
2022-08-05T20:41:44.116Z,33.00
2022-08-05T20:44:19.223Z,38.80
2022-08-05T20:46:59.663Z,28.17
2022-08-05T20:49:28.276Z,33.92
2022-08-05T20:51:58.502Z,29.48
2022-08-05T20:54:42.805Z,36.75
2022-08-05T20:57:42.744Z,30.27
2022-08-05T21:00:21.177Z,27.13
2022-08-05T21:02:56.097Z,30.52
2022-08-05T21:05:25.341Z,33.40
2022-08-05T21:08:07.783Z,29.38
2022-08-05T21:10:36.559Z,24.25
2022-08-05T21:13:14.720Z,33.83
2022-08-05T21:15:50.945Z,10.15
2022-08-05T21:18:19.350Z,3.97
2022-08-05T21:20:51.362Z,4.78
2022-08-05T21:23:20.694Z,10.65
2022-08-05T21:25:50.848Z,14.70
2022-08-05T21:28:23.930Z,13.52
2022-08-05T21:30:52.191Z,15.15
2022-08-05T21:33:22.581Z,39.50
2022-08-05T21:35:58.581Z,29.23
2022-08-05T21:38:28.928Z,20.52
2022-08-05T21:40:57.033Z,26.63
2022-08-05T21:43:25.971Z,23.38
2022-08-05T21:45:57.987Z,33.17
2022-08-05T21:48:29.033Z,29.10
2022-08-05T21:51:00.170Z,26.35
2022-08-05T21:53:29.501Z,44.08
2022-08-05T21:56:05.649Z,34.63
2022-08-05T21:58:42.259Z,31.40
2022-08-05T22:01:23.774Z,31.20
2022-08-05T22:03:53.620Z,36.63
2022-08-05T22:06:35.476Z,41.97
2022-08-05T22:09:14.045Z,42.45
2022-08-05T22:11:46.868Z,39.67
2022-08-05T22:14:35.236Z,34.00
2022-08-05T22:17:06.921Z,50.72
2022-08-05T22:20:02.703Z,40.05
2022-08-05T22:22:27.577Z,38.78
2022-08-05T22:25:21.171Z,39.00
2022-08-05T22:28:08.327Z,41.42
2022-08-05T22:30:43.982Z,44.95
2022-08-05T22:33:57.168Z,49.33
2022-08-05T22:36:14.715Z,37.63
2022-08-05T22:38:43.932Z,47.38
2022-08-05T22:41:26.194Z,40.00
2022-08-05T22:44:07.831Z,51.63
2022-08-05T22:46:39.799Z,41.40
2022-08-05T22:49:12.036Z,46.42
2022-08-05T22:52:04.330Z,41.75
2022-08-05T22:54:34.876Z,45.38
2022-08-05T22:57:04.641Z,42.75
2022-08-05T22:59:44.273Z,38.13
2022-08-05T23:02:17.330Z,50.35
2022-08-05T23:04:51.912Z,41.25
2022-08-05T23:09:57.140Z,46.58
2022-08-05T23:12:32.851Z,44.53
2022-08-05T23:15:03.416Z,40.63
2022-08-05T23:17:34.984Z,42.97
2022-08-05T23:20:17.023Z,45.13
2022-08-05T23:22:47.186Z,42.28
2022-08-05T23:25:50.310Z,41.78
2022-08-05T23:28:07.001Z,37.65
2022-08-05T23:30:40.302Z,42.47
2022-08-05T23:33:22.536Z,36.28
2022-08-05T23:35:56.201Z,31.38
2022-08-05T23:38:26.008Z,39.63
2022-08-05T23:40:54.986Z,33.00
2022-08-05T23:43:49.777Z,38.65
2022-08-05T23:46:20.676Z,25.25
2022-08-05T23:48:59.710Z,28.52
2022-08-05T23:51:53.881Z,23.48
2022-08-05T23:54:25.578Z,23.70
2022-08-05T23:56:54.941Z,23.05
2022-08-05T23:59:27.801Z,23.42
